Trapper Creek, AK

1:35 PM AKDT on September 23, 2014 (GMT -0800)
Talkeetna | Change Station
CLOSE
Current Station
Airport
Location: Talkeetna,
Elevation: 358 ft
Nearby Weather Stations

Elev 358 ft 62.32 °N, 150.09 °W | Updated 42 minutes ago

Mostly Cloudy
Mostly Cloudy
48 °F
Feels Like 48 °F
N
6
Wind Variable Wind from Variable

Today
High -- | Low -- °F
--% Chance of Precip.
Yesterday
High -- | Low -- °F
Precip. -- in
7:46 AM 7:55 PM
Waning Crescent, 0% visible
Pressure 29.92 in
Visibility 10.0 miles
Clouds Mostly Cloudy 4200 ft
Dew Point 35 °F
Humidity 61%
Rainfall 0.00 in
Snow Depth 1 in , 0 in , 1 in
UV 1 out of 12
Pollen Not available.
Air Quality Not available.
Flu Activity Not available.
METAR PATK 232053Z VRB05KT 10SM BKN042 09/02 A2991 RMK AO2 SLP132 T00890017 58000

More Conditions Fewer Conditions

Pressure 29.92 in
Visibility 10.0 miles
Clouds Mostly Cloudy 4200 ft
Dew Point 35 °F
Humidity 61%
Rainfall 0.00 in
Snow Depth 1 in , 0 in , 1 in
UV 1 out of 12
Pollen Not available.
Air Quality Not available.
Flu Activity Not available.
METAR PATK 232053Z VRB05KT 10SM BKN042 09/02 A2991 RMK AO2 SLP132 T00890017 58000

More Conditions Fewer Conditions

10-Day Weather Forecast

Almanac

Astronomy

Sep. 23, 2014 Rise Set
Actual Time 7:46 AM AKDT 7:55 PM AKDT
Civil Twilight 7:00 AM AKDT 8:41 PM AKDT
Nautical Twilight 6:04 AM AKDT 9:36 PM AKDT
Astronomical Twilight 5:02 AM AKDT 10:37 PM AKDT
Moon 7:19 AM AKDT 7:31 PM AKDT
Length of Visible Light 13h 40m
Length of Day
12h 09m
Tomorrow will be 6m 5s shorter.
Waning Crescent, 0% of the Moon is Illuminated
Today
Waning Crescent
Sep 24
New
Oct 1
First Quarter
Oct 8
Full
Oct 15
Last Quarter

Today's Extremes

State Highs State Lows

Community

WunderPhotos

Upload Photos

1,755,794 photos uploaded!

WunderBlogs® & News

By Dr. Jeff Masters
Director of Meteorology, Weather Underground
By Kari Strenfel
Meteorologist, Weather Underground
By Christopher C. Burt
Weather Historian, Weather Underground
September 23, 2014
September 23, 2014
September 23, 2014

Nearby

Snow Depth

Station Depth Elevation
Munson Ridge 1 in 3100 ft
Long Lake 0 in 820 ft
Eagle Summit 1 in 3650 ft
Grouse Creek Divide 0 in 700 ft
Little Chena Ridge 0 in 2000 ft

Earthquake Activity

City Distance Mag. Time & Date
No recent earthquake activity has been reported nearby.
Minimum magnitude displayed is 2.5.

Coastal Water Temperatures

Place Temperature
No Stations Reporting

Nearby Weather Stations